Time;durP1;ratioP1;P1;durP2;ratioP2;P2;SDS_P1;SDS_P2;PMS_P1;PMS_P2;Temp;Humidity;BMP_temperature;BMP_pressure;BME280_temperature;BME280_humidity;BME280_pressure;Samples;Min_cycle;Max_cycle;Signal;HPM_P1;HPM_P2
2023/11/30 00:01:00;;;;;;;2.95;2.20;;;-0.10;99.90;;;;;;4917239;29;20229;-71
2023/11/30 00:03:27;;;;;;;3.20;2.38;;;-0.10;99.90;;;;;;4917343;29;20206;-71
2023/11/30 00:05:53;;;;;;;2.40;2.20;;;-0.10;99.90;;;;;;4919567;29;20217;-71
2023/11/30 00:08:21;;;;;;;2.65;2.20;;;-0.10;99.90;;;;;;4921871;29;20209;-71
2023/11/30 00:10:48;;;;;;;3.17;2.35;;;-0.10;99.90;;;;;;4919122;29;20598;-71
2023/11/30 00:13:15;;;;;;;3.17;2.15;;;-0.10;99.90;;;;;;4918293;29;20218;-71
2023/11/30 04:30:57;;;;;;;3.25;1.63;;;-1.40;99.90;;;;;;5833764;23;20228;-71
2023/11/30 04:33:24;;;;;;;2.45;2.22;;;-1.40;99.90;;;;;;4945354;28;20209;-70
2023/11/30 04:35:50;;;;;;;2.60;2.38;;;-1.40;99.90;;;;;;4947383;29;20209;-72
2023/11/30 04:38:17;;;;;;;3.08;2.33;;;-1.40;99.90;;;;;;4950955;28;20592;-72
2023/11/30 04:40:44;;;;;;;3.75;2.50;;;-1.40;99.90;;;;;;4943957;28;20613;-72
2023/11/30 04:43:18;;;;;;;3.95;2.72;;;-1.40;99.90;;;;;;4941890;29;20209;-72
2023/11/30 04:45:44;;;;;;;5.32;2.90;;;-1.40;99.90;;;;;;4940079;28;20223;-72
2023/11/30 04:48:13;;;;;;;3.38;2.33;;;-1.40;99.90;;;;;;4944677;28;20220;-72
2023/11/30 04:50:40;;;;;;;4.10;2.60;;;-1.40;99.90;;;;;;4940991;28;20224;-72
2023/11/30 04:53:06;;;;;;;2.67;2.47;;;-1.30;99.90;;;;;;4926838;29;20212;-71
2023/11/30 04:55:33;;;;;;;2.33;2.00;;;-1.30;99.90;;;;;;4928826;29;20212;-72
2023/11/30 04:58:00;;;;;;;2.67;2.47;;;-1.30;99.90;;;;;;4928723;29;20233;-73
2023/11/30 05:00:27;;;;;;;3.53;2.33;;;-1.30;99.90;;;;;;4929878;29;20575;-73
2023/11/30 05:02:55;;;;;;;2.72;2.53;;;-1.20;99.90;;;;;;4928372;29;20697;-73
2023/11/30 05:05:23;;;;;;;2.55;2.00;;;-1.20;99.90;;;;;;4928346;29;20702;-73
2023/11/30 05:07:50;;;;;;;2.63;2.42;;;-1.20;99.90;;;;;;4927161;29;20679;-73
2023/11/30 05:10:17;;;;;;;3.50;2.92;;;-1.20;99.90;;;;;;4930998;29;20205;-72
2023/11/30 05:12:44;;;;;;;2.70;2.50;;;-1.20;99.90;;;;;;4928483;29;20213;-72
2023/11/30 05:15:11;;;;;;;4.18;2.83;;;-1.20;99.90;;;;;;4930593;29;20444;-73
2023/11/30 05:17:38;;;;;;;3.53;2.95;;;-1.20;99.90;;;;;;4927832;29;20245;-72
2023/11/30 05:20:06;;;;;;;4.22;3.40;;;-1.30;99.90;;;;;;4929459;29;20483;-74
2023/11/30 05:22:33;;;;;;;2.85;2.65;;;-1.30;99.90;;;;;;4929592;29;20231;-74
2023/11/30 05:25:00;;;;;;;3.13;2.70;;;-1.30;99.90;;;;;;4929493;29;20623;-74
2023/11/30 05:27:27;;;;;;;5.15;2.97;;;-1.30;99.90;;;;;;4930968;29;20201;-74
2023/11/30 05:29:54;;;;;;;3.70;2.33;;;-1.30;99.90;;;;;;4929162;29;20209;-74
2023/11/30 05:32:21;;;;;;;5.40;2.95;;;-1.30;99.90;;;;;;4930761;29;20229;-74
2023/11/30 05:34:49;;;;;;;2.75;2.40;;;-1.30;99.90;;;;;;4928647;29;20565;-74
2023/11/30 05:37:16;;;;;;;2.65;1.92;;;-1.40;99.90;;;;;;4930169;29;20217;-74
2023/11/30 05:39:44;;;;;;;2.75;2.55;;;-1.30;99.90;;;;;;4928673;29;20232;-74
2023/11/30 05:42:12;;;;;;;2.78;2.58;;;-1.30;99.90;;;;;;4930800;29;20225;-74
2023/11/30 05:44:39;;;;;;;3.25;2.60;;;-1.30;99.90;;;;;;4929262;29;20668;-74
2023/11/30 05:47:06;;;;;;;2.20;1.88;;;-1.30;99.90;;;;;;4930299;29;20209;-74
2023/11/30 05:49:33;;;;;;;6.13;2.70;;;-1.30;99.90;;;;;;4930438;29;20704;-74
2023/11/30 05:51:59;;;;;;;2.60;2.30;;;-1.30;99.90;;;;;;4931289;29;20231;-74
2023/11/30 05:54:26;;;;;;;3.72;2.20;;;-1.30;99.90;;;;;;4930864;29;20662;-74
2023/11/30 05:56:54;;;;;;;3.38;2.28;;;-1.30;99.90;;;;;;4928838;29;20715;-74
2023/11/30 05:59:21;;;;;;;4.57;3.50;;;-1.30;99.90;;;;;;4930988;29;20212;-74
2023/11/30 06:01:47;;;;;;;6.35;2.80;;;-1.30;99.90;;;;;;4929369;29;20228;-74
2023/11/30 06:04:14;;;;;;;2.95;2.30;;;-1.20;99.90;;;;;;4931252;29;20228;-74
2023/11/30 06:06:41;;;;;;;2.33;1.95;;;-1.20;99.90;;;;;;4929188;29;20576;-74
2023/11/30 06:09:08;;;;;;;3.47;3.17;;;-1.20;99.90;;;;;;4931242;29;20616;-73
2023/11/30 06:11:35;;;;;;;2.05;1.85;;;-1.20;99.90;;;;;;4930799;29;20239;-74
2023/11/30 06:14:04;;;;;;;2.58;2.25;;;-1.20;99.90;;;;;;4930732;29;20206;-73
2023/11/30 06:16:30;;;;;;;3.95;2.40;;;-1.20;99.90;;;;;;4930834;29;20301;-73
2023/11/30 06:18:57;;;;;;;2.40;2.20;;;-1.20;99.90;;;;;;4930023;29;20210;-73
2023/11/30 06:21:24;;;;;;;3.30;2.22;;;-1.20;99.90;;;;;;4931460;29;20233;-73
2023/11/30 06:23:51;;;;;;;3.53;2.53;;;-1.20;99.90;;;;;;4933734;29;20217;-73
2023/11/30 06:26:18;;;;;;;2.63;2.38;;;-1.10;99.90;;;;;;4934576;29;20216;-73
2023/11/30 06:28:45;;;;;;;3.22;2.13;;;-1.10;99.90;;;;;;4933590;29;20636;-73
2023/11/30 06:31:15;;;;;;;2.72;2.50;;;-1.10;99.90;;;;;;4934836;29;20324;-73
2023/11/30 06:33:42;;;;;;;3.42;2.90;;;-1.10;99.90;;;;;;4933724;29;20263;-73
2023/11/30 06:36:09;;;;;;;3.53;2.58;;;-1.10;99.90;;;;;;4934499;29;20205;-73
2023/11/30 06:38:36;;;;;;;7.03;2.92;;;-1.10;99.90;;;;;;4934492;29;20221;-74
2023/11/30 06:41:11;;;;;;;3.00;2.70;;;-1.10;99.90;;;;;;4934338;29;20235;-73
2023/11/30 06:43:37;;;;;;;2.50;2.30;;;-1.10;99.90;;;;;;4934533;29;20212;-73
2023/11/30 06:46:05;;;;;;;6.50;2.65;;;-1.10;99.90;;;;;;4934631;29;20212;-73
2023/11/30 06:48:33;;;;;;;5.15;2.88;;;-1.10;99.90;;;;;;4934752;29;20208;-73
2023/11/30 06:50:59;;;;;;;3.50;2.15;;;-1.10;99.90;;;;;;4933896;29;20222;-73
2023/11/30 06:53:26;;;;;;;1.98;1.75;;;-1.10;99.90;;;;;;4935070;29;20690;-73
2023/11/30 06:55:53;;;;;;;5.25;2.95;;;-1.10;99.90;;;;;;4933998;29;20217;-73
2023/11/30 06:58:19;;;;;;;3.58;2.50;;;-1.10;99.90;;;;;;4935022;29;20221;-73
2023/11/30 07:00:46;;;;;;;4.07;2.30;;;-1.10;99.90;;;;;;4934230;29;20265;-73
2023/11/30 07:03:13;;;;;;;3.55;3.20;;;-1.10;99.90;;;;;;4935873;29;20220;-72
2023/11/30 07:05:41;;;;;;;4.13;2.63;;;-1.10;99.90;;;;;;4934646;29;20639;-72
2023/11/30 07:08:08;;;;;;;3.13;2.80;;;-1.10;99.90;;;;;;4927490;29;20212;-72
2023/11/30 07:10:35;;;;;;;2.92;2.45;;;-1.10;99.90;;;;;;4935265;29;20698;-72
2023/11/30 07:13:01;;;;;;;4.28;2.90;;;-1.10;99.90;;;;;;4934551;29;20590;-72
2023/11/30 07:15:28;;;;;;;1.88;1.75;;;-1.00;99.90;;;;;;4935277;29;20208;-71
2023/11/30 07:17:55;;;;;;;3.55;1.70;;;-1.00;99.90;;;;;;4934223;29;20229;-71
2023/11/30 07:20:22;;;;;;;2.85;2.35;;;-1.00;99.90;;;;;;4935323;29;20202;-72
2023/11/30 07:22:50;;;;;;;6.07;2.95;;;-1.00;99.90;;;;;;4934827;29;20209;-72
2023/11/30 07:25:17;;;;;;;3.15;2.90;;;-1.00;99.90;;;;;;4935180;29;20205;-72
2023/11/30 07:27:43;;;;;;;2.80;1.95;;;-1.00;99.90;;;;;;4934709;29;20701;-73
2023/11/30 07:30:11;;;;;;;3.22;2.45;;;-1.00;99.90;;;;;;4935264;29;20212;-73
2023/11/30 07:32:38;;;;;;;2.90;1.52;;;-0.90;99.90;;;;;;4928051;29;20238;-73
2023/11/30 07:35:06;;;;;;;2.95;2.63;;;-0.90;99.90;;;;;;4915308;29;20218;-72
2023/11/30 07:37:33;;;;;;;2.80;2.17;;;-0.80;99.90;;;;;;4916480;29;20610;-72
2023/11/30 07:40:01;;;;;;;3.20;2.17;;;-0.80;99.90;;;;;;4916238;29;20225;-72
2023/11/30 07:42:27;;;;;;;2.33;2.13;;;-0.80;99.90;;;;;;4916652;29;20226;-72
2023/11/30 07:44:54;;;;;;;2.50;2.20;;;-0.70;99.90;;;;;;4916219;29;20229;-73
2023/11/30 07:47:21;;;;;;;3.10;2.40;;;-0.70;99.90;;;;;;4916548;29;20202;-72
2023/11/30 07:49:48;;;;;;;4.43;3.00;;;-0.70;99.90;;;;;;4916522;29;20717;-72
2023/11/30 07:52:15;;;;;;;4.68;3.40;;;-0.70;99.90;;;;;;4916850;29;20222;-73
2023/11/30 07:54:42;;;;;;;3.92;2.80;;;-0.60;99.90;;;;;;4916857;29;20265;-72
2023/11/30 07:57:10;;;;;;;3.10;2.80;;;-0.60;99.90;;;;;;4916233;29;20599;-72
2023/11/30 07:59:37;;;;;;;2.85;2.40;;;-0.50;99.90;;;;;;4916898;29;20209;-72
2023/11/30 08:02:04;;;;;;;4.53;2.80;;;-0.50;99.90;;;;;;4916897;29;20237;-72
2023/11/30 08:04:31;;;;;;;5.00;4.13;;;-0.50;99.90;;;;;;4916808;29;20206;-73
2023/11/30 08:06:59;;;;;;;5.22;3.50;;;-0.40;99.90;;;;;;4916458;29;20657;-72
2023/11/30 08:09:26;;;;;;;5.78;3.00;;;-0.30;99.90;;;;;;4917857;29;20683;-72
2023/11/30 08:11:52;;;;;;;3.80;2.85;;;-0.30;99.90;;;;;;4918929;29;20657;-72
2023/11/30 08:14:20;;;;;;;3.97;3.50;;;-0.20;99.90;;;;;;4917168;29;20714;-72
2023/11/30 08:16:47;;;;;;;5.97;3.80;;;-0.20;99.90;;;;;;4916627;29;20232;-72
2023/11/30 08:19:14;;;;;;;6.20;3.97;;;-0.10;99.90;;;;;;4916994;29;20225;-72
2023/11/30 08:21:41;;;;;;;5.50;3.50;;;-0.10;99.90;;;;;;4917064;29;20222;-72
2023/11/30 08:24:08;;;;;;;8.52;4.72;;;-0.10;99.90;;;;;;4916709;29;20252;-72
2023/11/30 08:26:35;;;;;;;4.47;3.38;;;0.00;99.90;;;;;;4916651;29;20214;-72
2023/11/30 08:29:02;;;;;;;5.38;4.20;;;0.00;99.90;;;;;;4917562;29;20272;-71
2023/11/30 08:31:30;;;;;;;3.70;3.13;;;0.10;99.90;;;;;;4917163;29;20597;-72
2023/11/30 08:33:56;;;;;;;5.45;4.00;;;0.10;99.90;;;;;;4917641;29;20210;-72
2023/11/30 08:36:24;;;;;;;4.47;3.65;;;0.10;99.90;;;;;;4916940;29;20210;-71
2023/11/30 08:38:51;;;;;;;5.20;3.90;;;0.10;99.90;;;;;;4917764;29;20316;-72
2023/11/30 08:41:18;;;;;;;5.78;3.78;;;0.20;99.90;;;;;;4917069;29;20225;-73
2023/11/30 08:43:44;;;;;;;5.18;4.50;;;0.20;99.90;;;;;;4917681;29;20213;-72
2023/11/30 08:46:12;;;;;;;6.57;5.10;;;0.20;99.90;;;;;;4916021;29;20206;-72
2023/11/30 08:48:40;;;;;;;9.63;4.05;;;0.30;99.90;;;;;;4917287;29;20616;-72
2023/11/30 08:51:09;;;;;;;6.53;4.90;;;0.30;99.90;;;;;;4916880;29;20233;-72
2023/11/30 08:53:36;;;;;;;4.43;3.92;;;0.40;99.90;;;;;;4917281;29;20582;-72
2023/11/30 08:56:03;;;;;;;5.88;4.60;;;0.40;99.90;;;;;;4917906;29;20209;-72
2023/11/30 08:58:30;;;;;;;6.40;4.65;;;0.50;99.90;;;;;;4917123;29;20222;-72
2023/11/30 09:00:56;;;;;;;6.90;4.50;;;0.60;99.90;;;;;;4918198;29;20233;-73
2023/11/30 09:03:23;;;;;;;8.88;5.68;;;0.70;99.90;;;;;;4917552;29;20221;-72
2023/11/30 09:05:51;;;;;;;7.47;5.25;;;0.90;99.90;;;;;;4918341;29;20266;-73
2023/11/30 09:08:18;;;;;;;5.47;4.63;;;1.00;99.90;;;;;;4917188;29;20208;-72
2023/11/30 09:10:45;;;;;;;8.75;5.40;;;1.10;99.90;;;;;;4917818;29;20237;-73
2023/11/30 09:13:11;;;;;;;6.47;5.00;;;1.20;99.90;;;;;;4917842;29;20238;-72
2023/11/30 09:15:38;;;;;;;5.38;4.03;;;1.40;99.90;;;;;;4917499;29;20561;-72
2023/11/30 09:18:07;;;;;;;9.52;4.78;;;1.50;99.90;;;;;;4918214;29;20240;-73
2023/11/30 09:20:34;;;;;;;4.93;4.22;;;1.60;99.90;;;;;;4917826;29;20232;-73
2023/11/30 09:23:04;;;;;;;5.68;4.80;;;1.60;99.90;;;;;;4919016;29;20238;-73
2023/11/30 09:25:30;;;;;;;7.03;5.05;;;1.70;99.90;;;;;;4917686;29;20202;-73
2023/11/30 09:27:57;;;;;;;4.55;4.05;;;1.70;99.90;;;;;;4918526;29;20297;-73
2023/11/30 09:30:24;;;;;;;7.03;4.97;;;1.80;99.90;;;;;;4917762;29;20206;-73
2023/11/30 09:32:52;;;;;;;6.20;4.35;;;1.80;99.90;;;;;;4918842;29;20687;-73
2023/11/30 09:35:19;;;;;;;4.25;3.85;;;1.90;99.90;;;;;;4923885;29;20221;-72
2023/11/30 09:37:48;;;;;;;6.45;4.03;;;1.80;99.90;;;;;;4917977;29;20222;-73
2023/11/30 09:40:16;;;;;;;9.00;5.25;;;1.90;99.90;;;;;;4918177;29;20311;-73
2023/11/30 09:42:43;;;;;;;5.47;4.47;;;2.00;99.90;;;;;;4918230;29;20206;-75
2023/11/30 09:45:10;;;;;;;8.88;4.45;;;1.90;99.90;;;;;;4918829;29;20632;-72
2023/11/30 09:47:37;;;;;;;7.70;4.88;;;1.90;99.90;;;;;;4917822;29;20220;-72
2023/11/30 09:50:04;;;;;;;5.03;4.53;;;2.00;99.90;;;;;;4919384;29;20213;-72
2023/11/30 09:52:31;;;;;;;6.10;4.95;;;2.10;99.90;;;;;;4918108;29;20230;-72
2023/11/30 09:54:58;;;;;;;9.10;5.40;;;2.20;99.90;;;;;;4919394;29;20261;-73
2023/11/30 09:57:26;;;;;;;4.45;3.90;;;2.30;99.90;;;;;;4919320;29;20675;-73
2023/11/30 09:59:54;;;;;;;5.45;4.00;;;2.30;99.90;;;;;;4923486;29;20679;-72
2023/11/30 10:02:23;;;;;;;5.80;4.38;;;2.40;99.90;;;;;;4922100;29;20230;-72
2023/11/30 10:04:51;;;;;;;5.20;3.60;;;2.50;99.90;;;;;;4923013;29;20218;-72
2023/11/30 10:07:18;;;;;;;4.60;4.07;;;2.50;99.90;;;;;;4921800;29;20247;-72
2023/11/30 10:09:45;;;;;;;10.27;5.03;;;2.60;99.90;;;;;;4922427;29;20596;-72
2023/11/30 10:12:12;;;;;;;7.28;4.40;;;2.50;99.90;;;;;;4923025;29;20235;-72
2023/11/30 10:14:40;;;;;;;7.00;4.05;;;2.50;99.90;;;;;;4922205;29;20206;-73
2023/11/30 10:17:06;;;;;;;6.05;3.85;;;2.50;99.90;;;;;;4921192;29;20209;-73
2023/11/30 10:19:33;;;;;;;5.28;4.30;;;2.50;99.90;;;;;;4922321;29;20644;-72
2023/11/30 10:22:00;;;;;;;7.28;4.18;;;2.50;99.90;;;;;;4923936;29;20241;-72
2023/11/30 10:24:28;;;;;;;5.78;4.10;;;2.50;99.90;;;;;;4922242;29;20216;-73
2023/11/30 10:26:59;;;;;;;5.38;4.15;;;2.50;99.90;;;;;;4923549;29;20214;-73
2023/11/30 10:29:30;;;;;;;6.47;4.25;;;2.50;99.90;;;;;;4932092;29;20229;-72
2023/11/30 10:32:03;;;;;;;7.18;4.93;;;2.60;99.90;;;;;;4930745;29;20237;-73
2023/11/30 10:34:43;;;;;;;6.28;4.43;;;2.60;99.90;;;;;;4927170;29;20590;-72
2023/11/30 10:37:10;;;;;;;8.38;4.57;;;2.80;99.90;;;;;;4921417;29;20224;-73
2023/11/30 10:39:42;;;;;;;5.45;3.60;;;3.20;99.90;;;;;;4922196;29;20312;-72
2023/11/30 10:42:12;;;;;;;5.13;4.10;;;3.50;99.90;;;;;;4921795;29;20741;-72
2023/11/30 10:44:41;;;;;;;7.15;4.00;;;3.70;99.90;;;;;;4922345;29;20233;-72
2023/11/30 10:47:10;;;;;;;5.60;4.03;;;3.80;99.90;;;;;;4921496;29;20237;-73
2023/11/30 10:49:38;;;;;;;5.72;4.03;;;3.90;99.90;;;;;;4922372;29;20254;-73
2023/11/30 10:52:07;;;;;;;4.65;3.60;;;3.90;99.90;;;;;;4924310;29;20264;-72
2023/11/30 10:54:38;;;;;;;4.57;3.58;;;3.80;99.90;;;;;;4922497;29;20293;-72
2023/11/30 10:57:06;;;;;;;5.05;3.65;;;3.70;99.90;;;;;;4924213;29;20304;-72
2023/11/30 10:59:33;;;;;;;6.32;4.95;;;3.40;99.90;;;;;;4922689;29;20715;-73
2023/11/30 11:02:01;;;;;;;6.65;4.50;;;3.10;99.90;;;;;;4924925;29;20252;-72
2023/11/30 11:04:29;;;;;;;5.35;3.88;;;3.00;99.90;;;;;;4922406;29;20644;-73
2023/11/30 11:07:03;;;;;;;4.40;3.72;;;2.90;99.90;;;;;;4923731;29;20217;-73
2023/11/30 11:09:41;;;;;;;6.75;3.92;;;2.80;99.90;;;;;;4931613;29;20363;-73
2023/11/30 11:12:17;;;;;;;6.93;3.95;;;2.70;99.90;;;;;;4927277;29;20315;-73
2023/11/30 11:14:44;;;;;;;4.38;3.53;;;2.70;99.90;;;;;;4922889;29;20213;-73
2023/11/30 11:17:11;;;;;;;4.13;3.45;;;2.70;99.90;;;;;;4924246;29;20213;-72
2023/11/30 11:19:41;;;;;;;5.63;3.80;;;2.60;99.90;;;;;;4922429;29;20222;-73
2023/11/30 11:22:18;;;;;;;5.82;4.43;;;2.40;99.90;;;;;;4922171;29;20237;-72
2023/11/30 11:24:47;;;;;;;4.82;3.60;;;2.20;99.90;;;;;;4922913;29;20218;-72
2023/11/30 11:27:26;;;;;;;5.43;4.00;;;2.10;99.90;;;;;;4923678;29;20213;-76
2023/11/30 11:29:53;;;;;;;8.23;4.82;;;2.10;99.90;;;;;;4924262;29;20261;-74
2023/11/30 11:32:21;;;;;;;5.13;4.10;;;2.20;99.90;;;;;;4923591;29;20241;-75
2023/11/30 11:34:50;;;;;;;5.45;4.10;;;2.40;99.90;;;;;;4923712;29;20216;-72
2023/11/30 11:37:17;;;;;;;7.53;3.47;;;2.50;99.90;;;;;;4923476;29;20228;-73
2023/11/30 11:39:44;;;;;;;4.22;3.45;;;2.50;99.90;;;;;;4922976;29;20226;-73
2023/11/30 11:42:11;;;;;;;4.63;3.47;;;2.50;99.90;;;;;;4924842;29;20349;-73
2023/11/30 11:44:37;;;;;;;4.85;3.40;;;2.60;99.90;;;;;;4922798;29;20590;-74
2023/11/30 11:47:04;;;;;;;5.03;4.15;;;2.70;99.90;;;;;;4925084;29;20633;-73
2023/11/30 11:49:31;;;;;;;6.93;5.05;;;2.70;99.90;;;;;;4929321;29;20206;-72
2023/11/30 11:51:59;;;;;;;4.10;3.75;;;2.80;99.90;;;;;;4925007;29;20234;-73
2023/11/30 11:54:26;;;;;;;4.15;3.75;;;2.80;99.90;;;;;;4922989;29;20220;-73
2023/11/30 11:56:53;;;;;;;4.53;3.90;;;2.80;99.90;;;;;;4923690;29;20217;-72
2023/11/30 11:59:21;;;;;;;4.85;4.22;;;2.80;99.90;;;;;;4923737;29;20239;-73
2023/11/30 12:01:48;;;;;;;7.88;4.28;;;2.80;99.90;;;;;;4923587;29;20657;-73
2023/11/30 12:04:26;;;;;;;5.30;3.35;;;2.80;99.90;;;;;;4924556;29;20568;-72
2023/11/30 12:06:52;;;;;;;3.53;3.22;;;2.80;99.90;;;;;;4923877;29;20214;-73
2023/11/30 12:09:21;;;;;;;5.47;3.67;;;2.70;99.90;;;;;;4924300;29;20662;-72
2023/11/30 12:11:48;;;;;;;5.50;4.43;;;2.60;99.90;;;;;;4923249;29;20232;-72
2023/11/30 12:14:15;;;;;;;5.43;3.85;;;2.60;99.90;;;;;;4924975;29;20237;-73
2023/11/30 12:16:43;;;;;;;6.18;4.75;;;2.70;99.90;;;;;;4922723;29;20571;-73
2023/11/30 12:19:10;;;;;;;4.75;3.72;;;2.80;99.90;;;;;;4938017;28;20224;-73
2023/11/30 12:21:36;;;;;;;5.78;4.28;;;2.90;99.90;;;;;;4930113;29;20664;-73
2023/11/30 12:24:03;;;;;;;5.70;4.40;;;2.90;99.90;;;;;;4935543;29;20205;-74
2023/11/30 12:26:31;;;;;;;6.78;4.00;;;3.00;99.90;;;;;;4930325;28;20218;-74
2023/11/30 12:28:58;;;;;;;5.70;3.70;;;3.00;99.90;;;;;;4934380;29;20210;-74
2023/11/30 12:31:25;;;;;;;5.65;4.40;;;3.00;99.90;;;;;;4921539;28;20280;-72
2023/11/30 12:33:52;;;;;;;4.43;3.42;;;3.10;99.90;;;;;;4919505;29;20205;-74
2023/11/30 12:36:19;;;;;;;5.50;3.78;;;3.10;99.90;;;;;;4922316;29;20201;-73
2023/11/30 12:38:46;;;;;;;4.90;4.32;;;3.10;99.90;;;;;;4920907;29;20331;-73
2023/11/30 12:41:13;;;;;;;5.22;4.38;;;3.10;99.90;;;;;;4923665;29;20259;-74
2023/11/30 12:43:41;;;;;;;8.02;4.05;;;3.00;99.90;;;;;;4920884;29;20202;-73
2023/11/30 12:46:09;;;;;;;5.65;4.72;;;3.00;99.90;;;;;;4920600;29;20213;-73
2023/11/30 12:48:36;;;;;;;6.40;3.88;;;3.00;99.90;;;;;;4921122;29;20739;-72
2023/11/30 12:51:04;;;;;;;5.57;4.90;;;3.00;99.90;;;;;;4922787;29;20233;-74
2023/11/30 12:53:31;;;;;;;6.90;4.60;;;3.00;99.90;;;;;;4919822;29;20295;-73
2023/11/30 12:55:58;;;;;;;4.78;4.35;;;3.10;99.90;;;;;;4924979;29;20209;-73
2023/11/30 12:58:25;;;;;;;6.38;3.70;;;3.10;99.90;;;;;;4927331;29;20209;-74
2023/11/30 13:00:54;;;;;;;5.28;4.20;;;3.20;99.90;;;;;;4925149;29;20226;-73
2023/11/30 13:03:20;;;;;;;4.55;3.85;;;3.20;99.90;;;;;;4924488;29;20675;-73
2023/11/30 13:05:49;;;;;;;4.18;3.78;;;3.20;99.90;;;;;;4921553;29;20210;-73
2023/11/30 13:08:15;;;;;;;5.25;4.70;;;3.30;99.90;;;;;;4917807;29;20206;-74
2023/11/30 13:10:42;;;;;;;5.60;3.50;;;3.30;99.90;;;;;;4921249;29;20225;-74
2023/11/30 13:13:09;;;;;;;5.05;3.72;;;3.20;99.90;;;;;;4920071;29;20211;-73
2023/11/30 13:15:36;;;;;;;4.38;3.90;;;3.10;99.90;;;;;;4916867;29;20590;-74
2023/11/30 13:18:04;;;;;;;5.00;4.15;;;3.00;99.90;;;;;;4918229;29;20296;-73
2023/11/30 13:20:31;;;;;;;4.60;3.67;;;3.00;99.90;;;;;;4918876;29;20290;-73
2023/11/30 13:22:58;;;;;;;5.45;3.95;;;2.90;99.90;;;;;;4920296;29;20215;-73
2023/11/30 13:25:24;;;;;;;3.25;2.90;;;2.90;99.90;;;;;;4918116;29;20209;-73
2023/11/30 13:27:53;;;;;;;6.30;4.30;;;2.90;99.90;;;;;;4927052;29;20210;-73
2023/11/30 13:30:23;;;;;;;5.40;3.50;;;2.90;99.90;;;;;;4923389;29;20207;-73
2023/11/30 13:32:50;;;;;;;4.72;3.70;;;2.90;99.90;;;;;;4921668;29;20212;-74
2023/11/30 13:35:18;;;;;;;6.82;4.43;;;3.00;99.90;;;;;;4920645;29;20224;-74
2023/11/30 13:37:48;;;;;;;6.47;4.40;;;2.90;99.90;;;;;;4925357;29;20282;-74
2023/11/30 13:40:15;;;;;;;6.45;4.38;;;2.90;99.90;;;;;;4925652;29;20220;-73
2023/11/30 13:42:42;;;;;;;4.30;3.70;;;2.90;99.90;;;;;;4929592;29;20589;-73
2023/11/30 13:45:09;;;;;;;5.85;4.40;;;2.90;99.90;;;;;;4920320;29;20206;-74
2023/11/30 13:47:36;;;;;;;5.32;3.85;;;2.90;99.90;;;;;;4925255;29;20213;-73
2023/11/30 13:50:03;;;;;;;5.60;5.00;;;3.00;99.90;;;;;;4926930;29;20219;-74
2023/11/30 13:52:32;;;;;;;5.05;3.90;;;3.00;99.90;;;;;;4925864;29;20224;-74
2023/11/30 13:55:00;;;;;;;7.22;4.25;;;3.00;99.90;;;;;;4930361;29;20259;-74
2023/11/30 13:57:27;;;;;;;11.23;5.55;;;3.00;99.90;;;;;;4930266;29;20209;-73
2023/11/30 14:08:10;;;;;;;4.30;3.90;;;3.00;99.90;;;;;;5118400;27;21111;-72
2023/11/30 14:10:37;;;;;;;4.38;3.47;;;3.00;99.90;;;;;;5114559;27;20231;-73
2023/11/30 14:13:05;;;;;;;5.32;4.65;;;3.10;99.90;;;;;;5100354;28;20294;-73
2023/11/30 14:15:33;;;;;;;4.90;4.07;;;3.00;99.90;;;;;;5100026;28;20932;-73
2023/11/30 14:18:00;;;;;;;10.60;4.63;;;3.00;99.90;;;;;;5097726;28;20290;-72
2023/11/30 14:20:27;;;;;;;7.28;4.07;;;3.00;99.90;;;;;;5093934;28;20204;-73
2023/11/30 14:22:54;;;;;;;6.30;4.55;;;3.00;99.90;;;;;;5098158;28;20207;-72
2023/11/30 14:25:23;;;;;;;8.25;5.30;;;2.90;99.90;;;;;;5098903;28;20337;-70
2023/11/30 14:27:50;;;;;;;6.63;5.25;;;3.00;99.90;;;;;;5098059;28;20450;-71
2023/11/30 14:30:17;;;;;;;6.13;4.05;;;3.00;99.90;;;;;;5101187;28;20283;-73
2023/11/30 14:32:44;;;;;;;3.85;3.50;;;2.90;99.90;;;;;;5096101;28;20286;-73
2023/11/30 14:35:11;;;;;;;6.18;4.20;;;2.90;99.90;;;;;;5099167;28;20210;-73
2023/11/30 14:37:38;;;;;;;4.05;3.58;;;2.80;99.90;;;;;;5095065;28;20201;-72
2023/11/30 14:40:08;;;;;;;7.68;4.43;;;2.80;99.90;;;;;;5098551;28;20585;-73
2023/11/30 14:42:36;;;;;;;8.68;4.35;;;2.80;99.90;;;;;;5098965;28;20220;-73
2023/11/30 14:45:04;;;;;;;5.60;4.10;;;2.80;99.90;;;;;;5101144;28;20315;-74
2023/11/30 14:47:37;;;;;;;6.07;4.20;;;2.80;99.90;;;;;;5106638;28;20231;-73
2023/11/30 14:50:06;;;;;;;6.65;3.97;;;2.80;99.90;;;;;;5107966;28;20315;-74
2023/11/30 14:52:33;;;;;;;4.88;4.00;;;2.90;99.90;;;;;;5107555;28;20238;-73
2023/11/30 14:55:00;;;;;;;4.85;3.75;;;2.90;99.90;;;;;;5107523;28;20676;-72
2023/11/30 14:57:26;;;;;;;8.68;5.70;;;2.80;99.90;;;;;;5107604;28;20200;-73
2023/11/30 14:59:55;;;;;;;4.65;4.25;;;2.90;99.90;;;;;;5106202;28;20208;-73
2023/11/30 15:02:22;;;;;;;9.32;4.65;;;2.90;99.90;;;;;;5101959;28;20229;-74
2023/11/30 15:04:48;;;;;;;4.95;4.10;;;2.90;99.90;;;;;;5105061;28;20665;-73
2023/11/30 15:07:15;;;;;;;5.18;3.95;;;2.90;99.90;;;;;;5106918;28;20219;-73
2023/11/30 15:09:42;;;;;;;6.80;4.43;;;2.80;99.90;;;;;;5101253;28;20200;-70
2023/11/30 15:12:09;;;;;;;6.55;5.18;;;2.80;99.90;;;;;;5099733;28;20727;-73
2023/11/30 15:14:35;;;;;;;5.35;4.80;;;2.80;99.90;;;;;;5100885;28;20209;-73
2023/11/30 15:17:04;;;;;;;14.10;6.55;;;2.80;99.90;;;;;;5099689;28;20242;-73
2023/11/30 15:19:31;;;;;;;7.57;5.82;;;2.80;99.90;;;;;;5085320;28;20211;-74
2023/11/30 15:21:58;;;;;;;5.40;4.70;;;2.80;99.90;;;;;;5084232;28;20302;-72
2023/11/30 15:24:25;;;;;;;5.72;4.30;;;2.80;99.90;;;;;;5093160;28;20291;-73
2023/11/30 15:26:52;;;;;;;4.07;3.75;;;2.80;99.90;;;;;;5093028;28;20219;-73
2023/11/30 15:29:18;;;;;;;6.30;4.10;;;2.80;99.90;;;;;;5088152;28;20207;-72
2023/11/30 15:31:45;;;;;;;5.32;3.92;;;2.70;99.90;;;;;;5086200;28;20290;-72
2023/11/30 15:34:13;;;;;;;6.75;3.67;;;2.70;99.90;;;;;;5086636;28;20219;-70
2023/11/30 15:36:42;;;;;;;5.80;3.65;;;2.70;99.90;;;;;;5089170;28;20221;-71
2023/11/30 15:39:15;;;;;;;5.53;4.25;;;2.70;99.90;;;;;;5086899;28;20676;-71
2023/11/30 15:41:43;;;;;;;4.35;3.50;;;2.70;99.90;;;;;;5086026;28;20231;-70
2023/11/30 15:44:09;;;;;;;5.45;3.72;;;2.60;99.90;;;;;;5087118;28;20244;-71
2023/11/30 15:46:36;;;;;;;6.20;3.55;;;2.60;99.90;;;;;;5085862;28;20232;-71
2023/11/30 15:49:03;;;;;;;3.40;3.03;;;2.60;99.90;;;;;;5088361;28;20247;-71
2023/11/30 15:51:31;;;;;;;5.30;3.95;;;2.50;99.90;;;;;;5089379;28;20690;-71
2023/11/30 15:53:58;;;;;;;5.03;2.95;;;2.50;99.90;;;;;;5087043;28;20200;-71
2023/11/30 15:56:25;;;;;;;3.50;3.17;;;2.50;99.90;;;;;;5086949;28;20640;-70
2023/11/30 15:58:51;;;;;;;3.58;2.78;;;2.40;99.90;;;;;;5084317;28;20205;-70
2023/11/30 16:01:18;;;;;;;3.97;3.25;;;2.40;99.90;;;;;;5085832;28;20220;-74
2023/11/30 16:03:45;;;;;;;3.80;3.20;;;2.40;99.90;;;;;;5086102;28;20664;-71
2023/11/30 16:06:12;;;;;;;3.53;3.22;;;2.40;99.90;;;;;;5088879;28;20203;-70
2023/11/30 16:08:40;;;;;;;4.00;3.47;;;2.40;99.90;;;;;;5085850;28;20222;-71
2023/11/30 16:11:12;;;;;;;5.40;4.43;;;2.40;99.90;;;;;;5086359;28;20716;-71
2023/11/30 16:13:39;;;;;;;5.88;4.05;;;2.50;99.90;;;;;;5083385;28;20383;-71
2023/11/30 16:16:06;;;;;;;6.63;4.13;;;2.50;99.90;;;;;;5086405;28;20215;-71
2023/11/30 16:18:35;;;;;;;4.93;3.72;;;2.40;99.90;;;;;;5086512;28;20197;-71
2023/11/30 16:21:01;;;;;;;5.97;4.68;;;2.40;99.90;;;;;;5084074;28;20305;-72
2023/11/30 16:23:28;;;;;;;5.38;4.13;;;2.40;99.90;;;;;;5082717;28;20572;-72
2023/11/30 16:25:56;;;;;;;5.70;4.28;;;2.40;99.90;;;;;;5082857;28;20219;-71
2023/11/30 16:28:23;;;;;;;4.20;3.80;;;2.40;99.90;;;;;;5080759;28;20219;-71
2023/11/30 16:30:50;;;;;;;4.47;3.95;;;2.40;99.90;;;;;;5084369;28;20716;-73
2023/11/30 16:33:17;;;;;;;5.22;4.20;;;2.40;99.90;;;;;;5088207;28;20200;-73
2023/11/30 16:35:44;;;;;;;4.93;3.85;;;2.30;99.90;;;;;;5085240;28;20294;-72
2023/11/30 16:38:11;;;;;;;3.95;3.55;;;2.40;99.90;;;;;;5083320;28;20203;-73
2023/11/30 16:40:37;;;;;;;5.07;3.67;;;2.40;99.90;;;;;;5084645;28;20223;-73
2023/11/30 16:43:06;;;;;;;4.63;4.00;;;2.40;99.90;;;;;;5082615;28;20206;-72
2023/11/30 16:45:33;;;;;;;5.53;3.85;;;2.40;99.90;;;;;;5085704;28;20280;-73
2023/11/30 16:48:00;;;;;;;7.68;5.03;;;2.30;99.90;;;;;;5085599;28;20773;-73
2023/11/30 16:50:27;;;;;;;5.95;3.83;;;2.40;99.90;;;;;;5085456;28;20568;-72
2023/11/30 16:52:53;;;;;;;3.97;3.53;;;2.30;99.90;;;;;;5085450;28;20212;-73
2023/11/30 16:55:21;;;;;;;4.45;3.88;;;2.30;99.90;;;;;;5084423;28;20219;-74
2023/11/30 16:57:48;;;;;;;4.18;3.72;;;2.30;99.90;;;;;;5083941;28;20205;-73
2023/11/30 17:00:18;;;;;;;6.93;3.78;;;2.30;99.90;;;;;;5083585;28;20222;-72
2023/11/30 17:02:44;;;;;;;7.85;5.82;;;2.30;99.90;;;;;;5071862;28;20200;-74
2023/11/30 17:05:11;;;;;;;7.78;6.43;;;2.30;99.90;;;;;;5074974;28;20211;-72
2023/11/30 17:07:38;;;;;;;8.40;6.28;;;2.20;99.90;;;;;;5085069;28;20211;-72
2023/11/30 17:10:05;;;;;;;9.50;5.82;;;2.20;99.90;;;;;;5084980;28;20803;-73
2023/11/30 17:12:32;;;;;;;7.40;4.65;;;2.30;99.90;;;;;;5080510;28;20647;-73
2023/11/30 17:14:59;;;;;;;4.57;3.95;;;2.30;99.90;;;;;;5078176;28;20215;-72
2023/11/30 17:17:27;;;;;;;5.90;4.35;;;2.30;99.90;;;;;;5077864;28;20197;-72